utilisation pie
utilisation bar
humidity graph
temperature graph
Station id: aae83c for 2 days

start:   stop:  

day time in temp out temp in RH out RH H quota rule action
2020-05-31 00:03:19 18.9 9.3 44 67 85 G 0
2020-05-31 00:33:29 17.6 8.8 46 70 88 G 0
2020-05-31 01:03:30 17.7 8.6 46 73 89 G 0
2020-05-31 01:33:31 17.4 8.4 47 75 91 G 0
2020-05-31 02:03:32 17.1 8.4 47 74 91 G 0
2020-05-31 02:33:33 18.0 8.1 45 76 91 G 0
2020-05-31 03:03:35 16.8 7.8 48 77 92 G 0
2020-05-31 03:33:36 16.6 7.7 48 79 94 H 0
2020-05-31 04:03:37 17.1 7.4 47 81 95 H 0
2020-05-31 04:33:38 16.4 7.4 48 82 96 H 0
2020-05-31 05:03:39 17.2 7.7 47 81 97 H 0
2020-05-31 05:33:40 16.5 8.9 48 77 99 H 0
2020-05-31 06:03:42 16.5 10.1 48 73 103 H 0
2020-05-31 06:33:43 17.8 10.9 45 71 102 H 0
2020-05-31 07:03:44 17.1 11.9 47 67 104 H 0
2020-05-31 07:33:45 16.8 12.6 48 65 105 H 0
2020-05-31 08:03:46 17.4 13.8 46 61 106 H 0
2020-05-31 08:33:47 16.3 14.6 49 59 108 H 0
2020-05-31 09:03:48 17.5 15.9 47 58 112 H 0
2020-05-31 09:33:50 16.5 17.5 49 53 114 H 0
2020-05-31 10:03:51 16.4 17.4 50 50 106 H 0
2020-05-31 10:33:52 17.8 18.1 47 46 100 H 0
2020-05-31 11:03:53 16.8 19.2 49 40 94 H 0
2020-05-31 11:33:54 16.8 19.5 49 36 86 V
1
2020-05-31 12:03:55 17.6 19.8 45 34 85 V
1
2020-05-31 12:33:57 19.0 19.9 36 33 96 H 0
2020-05-31 13:03:58 18.9 20.5 40 35 96 H 0
2020-05-31 13:33:59 18.2 20.5 42 32 88 V
1
2020-05-31 14:04:00 18.2 20.8 41 31 89 V
1
2020-05-31 14:34:01 20.1 20.6 36 29 84 G 0
2020-05-31 15:04:02 20.9 21.2 37 31 85 G 0
2020-05-31 15:34:03 21.5 21.1 37 32 84 G 0
2020-05-31 16:04:05 21.9 21.2 37 31 79 G 0
2020-05-31 16:34:06 21.4 20.9 39 32 81 G 0
2020-05-31 17:04:07 22.3 20.9 37 29 71 G 0
2020-05-31 17:34:08 21.9 20.6 38 29 70 G 0
2020-05-31 18:04:09 21.5 20.5 35 31 84 G 0
2020-05-31 18:34:10 22.4 20.1 32 30 83 G 0
2020-05-31 19:04:11 21.5 19.3 35 30 75 G 0
2020-05-31 19:34:12 21.2 18.9 36 33 81 G 0
2020-05-31 20:04:14 22.4 18.2 35 33 73 G 0
2020-05-31 20:34:15 21.1 17.1 37 35 72 G 0
2020-05-31 21:04:16 20.8 16.2 39 36 70 G 0
2020-05-31 21:34:17 20.9 15.1 38 40 75 G 0
2020-05-31 22:04:18 20.4 14.4 39 42 74 G 0
2020-05-31 22:34:19 21.1 13.4 36 46 80 G 0
2020-05-31 23:04:21 19.9 13.0 39 48 81 G 0
2020-05-31 23:34:22 19.6 12.4 40 49 80 G 0
2020-06-01 00:04:23 20.2 12.0 39 51 80 G 0
2020-06-01 00:34:24 19.3 11.3 41 55 82 G 0
2020-06-01 01:04:25 19.9 11.0 41 59 84 G 0
2020-06-01 01:34:26 19.0 10.6 43 60 84 G 0
2020-06-01 02:04:27 18.6 10.2 43 60 82 G 0
2020-06-01 02:34:29 19.8 10.2 41 57 78 G 0
2020-06-01 03:04:30 18.3 10.1 44 58 80 G 0
2020-06-01 03:34:31 18.9 10.2 43 58 79 G 0
2020-06-01 04:04:32 18.0 10.1 45 57 78 G 0
2020-06-01 04:34:33 17.6 10.2 45 55 77 G 0
2020-06-01 05:04:34 18.6 10.6 43 55 79 G 0
2020-06-01 05:34:36 17.7 12.0 45 54 84 G 0


2020-06-01 06:55:53 CEST